Eastman, Canada
Current Conditions -  °F | °C
As of 4:00 AM on Monday 20 Oct 2014 (Local Time) from CYSC Reporting Station
Overcast Overcast  
Wind Chill: 28°   Ceiling: 4500
Heat Index: 36°   Visibility: 9mi
Dew Point: 25°   Wind: 12mph
Humidity: 65%   Direction: 270°W
Pressure: 29.93"   Gusts: NA
Location:  45.3°N, 72.32°W
Report Text: CYSC 200800Z AUTO 27010KT 9SM OVC045 02/M04 A2993 RMK SLP142
Loading
Personal Weather Stations






























Interactive Weather Map New forecast layout! Learn more

10-Day Weather Forecast

Advertisements
Track Severe Weather on mobile